Time;durP1;ratioP1;P1;durP2;ratioP2;P2;SDS_P1;SDS_P2;PMS_P1;PMS_P2;Temp;Humidity;BMP_temperature;BMP_pressure;BME280_temperature;BME280_humidity;BME280_pressure;Samples;Min_cycle;Max_cycle;Signal;HPM_P1;HPM_P2
2023/07/29 00:01:10;;;;;;;10.57;7.70;;;21.60;58.30;;;;;;5073910;28;20047;-66
2023/07/29 00:03:37;;;;;;;13.88;8.88;;;22.00;58.30;;;;;;5072817;28;20036;-66
2023/07/29 00:06:05;;;;;;;14.27;9.02;;;22.10;58.20;;;;;;5073976;28;20044;-67
2023/07/29 00:08:32;;;;;;;11.23;8.02;;;22.40;57.30;;;;;;5075521;28;20052;-67
2023/07/29 00:11:00;;;;;;;14.30;9.50;;;22.10;57.60;;;;;;5077269;28;20017;-67
2023/07/29 00:13:28;;;;;;;13.15;8.60;;;22.60;56.50;;;;;;5076495;28;20032;-67
2023/07/29 00:15:56;;;;;;;12.98;8.55;;;22.80;56.90;;;;;;5077440;28;20029;-66
2023/07/29 00:18:23;;;;;;;14.48;7.72;;;23.00;57.60;;;;;;5076262;28;20031;-68
2023/07/29 00:20:51;;;;;;;12.07;7.45;;;23.30;55.50;;;;;;5076328;28;20025;-68
2023/07/29 00:23:19;;;;;;;11.88;6.25;;;23.60;54.20;;;;;;5077516;28;20327;-68
2023/07/29 00:28:23;;;;;;;11.93;6.78;;;24.10;52.60;;;;;;5180556;23;20055;-81
2023/07/29 00:30:50;;;;;;;10.43;6.20;;;24.30;52.40;;;;;;4977463;28;20152;-83
2023/07/29 00:33:19;;;;;;;9.00;5.60;;;24.20;52.50;;;;;;4977504;28;20042;-79
2023/07/29 00:35:47;;;;;;;7.43;4.90;;;23.90;52.10;;;;;;4976536;28;20042;-76
2023/07/29 00:38:14;;;;;;;8.75;5.35;;;23.80;51.80;;;;;;4976788;28;20034;-78
2023/07/29 00:40:42;;;;;;;8.07;4.68;;;23.90;52.30;;;;;;4978469;28;20026;-76
2023/07/29 00:43:10;;;;;;;7.97;5.05;;;23.90;52.00;;;;;;4979676;28;20038;-84
2023/07/29 00:45:39;;;;;;;8.23;4.80;;;24.10;51.20;;;;;;4978545;28;20053;-81
2023/07/29 00:48:06;;;;;;;9.20;4.88;;;24.40;51.70;;;;;;4977741;28;20110;-82
2023/07/29 00:50:34;;;;;;;6.80;3.67;;;24.40;51.70;;;;;;4983639;28;20058;-84
2023/07/29 00:53:01;;;;;;;7.22;4.30;;;24.30;50.80;;;;;;4979026;28;20023;-83
2023/07/29 00:55:29;;;;;;;7.05;4.45;;;24.10;50.80;;;;;;4979955;28;20027;-85
2023/07/29 00:57:57;;;;;;;7.15;3.90;;;24.10;51.60;;;;;;4982126;28;20097;-81
2023/07/29 01:00:25;;;;;;;7.88;4.15;;;24.40;50.90;;;;;;4977733;28;20097;-80
2023/07/29 01:02:54;;;;;;;5.43;2.83;;;24.40;50.10;;;;;;4978543;28;20082;-80
2023/07/29 01:05:22;;;;;;;5.22;2.05;;;23.70;51.30;;;;;;4976290;28;20037;-81
2023/07/29 01:08:03;;;;;;;2.72;1.10;;;24.00;49.70;;;;;;4977645;28;20034;-81
2023/07/29 01:10:50;;;;;;;2.35;1.20;;;24.30;46.70;;;;;;4977915;28;20038;-87
2023/07/29 01:13:54;;;;;;;2.00;1.15;;;24.90;46.30;;;;;;4977114;28;20027;-84
2023/07/29 01:16:31;;;;;;;1.88;1.10;;;23.90;47.00;;;;;;4978562;28;20046;-82
2023/07/29 01:19:04;;;;;;;1.73;1.15;;;24.90;46.00;;;;;;4978953;28;20110;-85
2023/07/29 01:21:32;;;;;;;2.35;1.15;;;25.30;45.50;;;;;;4980376;28;20027;-86
2023/07/29 01:24:00;;;;;;;1.95;1.10;;;24.90;45.50;;;;;;4977565;28;20074;-81
2023/07/29 01:26:29;;;;;;;2.60;1.30;;;24.30;46.70;;;;;;4978609;28;20031;-79
2023/07/29 01:28:58;;;;;;;4.90;1.60;;;23.60;48.00;;;;;;4976975;28;20050;-76
2023/07/29 01:31:44;;;;;;;2.72;1.30;;;23.80;48.60;;;;;;4978971;28;20015;-80
2023/07/29 01:34:26;;;;;;;2.60;1.48;;;24.00;48.00;;;;;;4978494;28;20042;-80
2023/07/29 01:36:57;;;;;;;3.20;1.80;;;24.50;46.80;;;;;;4976173;28;20029;-62
2023/07/29 01:39:28;;;;;;;3.47;1.60;;;24.70;45.90;;;;;;4977750;28;20556;-63
2023/07/29 01:41:56;;;;;;;2.67;1.90;;;24.10;46.40;;;;;;4977506;28;20027;-63
2023/07/29 01:44:25;;;;;;;4.13;1.80;;;23.30;47.20;;;;;;4976262;28;20042;-62
2023/07/29 01:46:52;;;;;;;4.50;2.20;;;23.40;48.00;;;;;;4977566;28;20121;-63
2023/07/29 01:49:20;;;;;;;2.53;1.20;;;23.60;48.30;;;;;;4977182;28;20033;-63
2023/07/29 01:51:47;;;;;;;3.22;1.38;;;23.50;46.70;;;;;;4976334;28;20027;-63
2023/07/29 01:54:15;;;;;;;1.92;1.20;;;23.50;47.80;;;;;;4977347;28;20360;-68
2023/07/29 01:56:42;;;;;;;3.25;1.30;;;23.70;47.30;;;;;;4977098;28;20041;-69
2023/07/29 01:59:10;;;;;;;2.20;1.05;;;24.00;47.00;;;;;;4977138;28;20022;-63
2023/07/29 02:01:37;;;;;;;2.20;1.10;;;24.10;46.00;;;;;;4975979;28;20027;-63
2023/07/29 02:04:05;;;;;;;2.13;1.10;;;23.50;47.80;;;;;;4976058;28;20030;-67
2023/07/29 02:06:33;;;;;;;3.15;0.90;;;23.50;47.70;;;;;;4976814;28;20439;-68
2023/07/29 02:09:00;;;;;;;2.63;1.00;;;23.60;48.00;;;;;;4977390;28;20413;-62
2023/07/29 02:11:35;;;;;;;2.38;0.90;;;23.50;47.30;;;;;;4975940;28;20027;-63
2023/07/29 02:14:03;;;;;;;3.35;1.05;;;23.60;47.60;;;;;;4976174;28;20062;-69
2023/07/29 02:16:32;;;;;;;2.55;1.17;;;23.90;46.90;;;;;;4976719;28;20041;-63
2023/07/29 02:19:00;;;;;;;1.67;0.85;;;23.60;47.50;;;;;;4976779;28;20054;-62
2023/07/29 02:21:27;;;;;;;2.17;1.17;;;24.10;46.60;;;;;;4975913;28;20027;-62
2023/07/29 02:23:55;;;;;;;2.22;1.10;;;24.10;46.50;;;;;;4975809;28;20027;-63
2023/07/29 02:26:23;;;;;;;3.63;1.20;;;24.20;46.50;;;;;;4976652;28;20038;-63
2023/07/29 02:28:51;;;;;;;2.60;0.98;;;24.20;47.10;;;;;;4975457;28;20042;-63
2023/07/29 02:31:22;;;;;;;1.65;0.80;;;24.10;45.80;;;;;;4976179;28;20454;-63
2023/07/29 02:33:50;;;;;;;2.22;1.08;;;23.90;45.90;;;;;;4975724;28;20031;-63
2023/07/29 02:36:18;;;;;;;1.48;0.80;;;23.80;46.80;;;;;;4976435;28;20081;-63
2023/07/29 02:38:46;;;;;;;1.48;0.88;;;23.80;46.60;;;;;;4976224;28;20113;-63
2023/07/29 02:41:15;;;;;;;2.20;0.80;;;23.70;46.70;;;;;;4975138;28;20035;-62
2023/07/29 02:43:44;;;;;;;1.80;0.90;;;23.60;46.40;;;;;;4974804;28;20038;-63
2023/07/29 02:46:11;;;;;;;1.90;0.80;;;24.60;44.90;;;;;;4976050;28;20034;-64
2023/07/29 02:48:39;;;;;;;2.70;1.25;;;25.20;44.90;;;;;;4975125;28;20023;-63
2023/07/29 02:51:06;;;;;;;3.17;0.95;;;25.90;43.90;;;;;;4975406;28;20027;-64
2023/07/29 02:53:36;;;;;;;2.88;1.10;;;25.80;42.80;;;;;;4975185;28;20026;-63
2023/07/29 02:56:06;;;;;;;1.92;0.90;;;24.90;45.00;;;;;;4975359;28;20117;-68
2023/07/29 02:58:34;;;;;;;3.53;1.10;;;24.40;45.50;;;;;;4974794;28;20027;-69
2023/07/29 03:01:05;;;;;;;1.58;0.82;;;24.00;46.40;;;;;;4974970;28;20114;-68
2023/07/29 03:03:33;;;;;;;2.20;0.95;;;24.00;46.80;;;;;;4974860;28;20109;-68
2023/07/29 03:06:07;;;;;;;3.47;1.13;;;23.90;47.00;;;;;;4975666;28;20353;-69
2023/07/29 03:08:34;;;;;;;2.63;1.10;;;23.80;47.10;;;;;;4974880;28;20023;-69
2023/07/29 03:11:15;;;;;;;2.58;1.13;;;24.80;46.40;;;;;;4975943;28;20030;-69
2023/07/29 03:13:42;;;;;;;1.75;1.00;;;25.70;44.40;;;;;;4975889;28;20030;-67
2023/07/29 03:16:13;;;;;;;1.67;1.00;;;26.20;43.10;;;;;;4975694;28;20499;-67
2023/07/29 03:18:42;;;;;;;2.20;1.00;;;26.20;43.40;;;;;;4975518;28;20037;-69
2023/07/29 03:21:11;;;;;;;2.10;1.10;;;26.30;43.20;;;;;;4974836;28;20416;-68
2023/07/29 03:23:39;;;;;;;1.55;1.10;;;26.30;42.20;;;;;;4975917;28;20445;-68
2023/07/29 03:26:13;;;;;;;3.08;1.23;;;26.60;42.10;;;;;;4975836;28;20035;-67
2023/07/29 03:28:42;;;;;;;2.30;1.10;;;26.40;42.90;;;;;;4975509;28;20043;-62
2023/07/29 03:31:10;;;;;;;1.73;1.13;;;26.40;43.20;;;;;;4975789;28;20098;-61
2023/07/29 03:33:38;;;;;;;2.40;1.10;;;26.30;43.30;;;;;;4975628;28;20023;-62
2023/07/29 03:36:06;;;;;;;2.67;1.13;;;26.80;42.00;;;;;;4975761;28;20023;-62
2023/07/29 03:38:35;;;;;;;4.72;1.58;;;26.80;41.50;;;;;;4975550;28;20061;-62
2023/07/29 03:41:02;;;;;;;2.05;1.27;;;26.70;41.80;;;;;;4975956;28;20467;-62
2023/07/29 03:43:30;;;;;;;3.88;1.33;;;27.10;41.20;;;;;;4979289;28;20433;-61
2023/07/29 03:45:57;;;;;;;2.10;1.17;;;27.00;41.20;;;;;;4978295;28;20110;-61
2023/07/29 03:48:25;;;;;;;1.75;1.13;;;26.90;41.20;;;;;;4979442;28;20433;-61
2023/07/29 03:50:53;;;;;;;1.88;1.13;;;26.80;41.60;;;;;;4979285;28;20077;-62
2023/07/29 03:53:20;;;;;;;3.95;1.45;;;26.60;42.90;;;;;;4977991;28;20039;-66
2023/07/29 03:55:49;;;;;;;1.67;1.15;;;26.70;42.10;;;;;;4979142;28;20449;-66
2023/07/29 03:58:17;;;;;;;2.97;1.20;;;26.50;42.00;;;;;;4977632;28;20181;-67
2023/07/29 04:00:48;;;;;;;5.20;1.48;;;26.80;41.10;;;;;;4979101;28;20030;-69
2023/07/29 04:03:15;;;;;;;3.25;1.33;;;27.10;41.60;;;;;;4979074;28;20445;-61
2023/07/29 04:05:43;;;;;;;2.28;1.20;;;27.10;41.50;;;;;;4978829;28;20035;-63
2023/07/29 04:08:10;;;;;;;2.50;1.25;;;27.20;41.30;;;;;;4978701;28;20019;-64
2023/07/29 04:10:38;;;;;;;2.83;1.60;;;26.50;41.60;;;;;;4979068;28;20015;-64
2023/07/29 04:13:06;;;;;;;2.55;1.15;;;26.00;42.40;;;;;;4978904;28;20023;-68
2023/07/29 04:15:33;;;;;;;2.05;1.20;;;25.70;43.00;;;;;;4978868;28;20094;-68
2023/07/29 04:18:01;;;;;;;1.40;1.10;;;25.80;43.30;;;;;;4977663;28;20114;-68
2023/07/29 04:20:29;;;;;;;2.10;1.13;;;25.70;43.50;;;;;;4977848;28;20042;-68
2023/07/29 04:22:57;;;;;;;1.70;1.08;;;25.20;44.10;;;;;;4978667;28;20031;-69
2023/07/29 04:25:25;;;;;;;2.60;1.20;;;24.80;44.70;;;;;;4978655;28;20035;-68
2023/07/29 04:27:53;;;;;;;4.60;1.15;;;24.50;45.30;;;;;;4977284;28;20397;-68
2023/07/29 04:30:20;;;;;;;1.85;0.90;;;24.60;45.20;;;;;;4978719;28;20328;-68
2023/07/29 04:32:48;;;;;;;1.27;0.93;;;24.40;44.90;;;;;;4977345;28;20426;-68
2023/07/29 04:35:16;;;;;;;1.73;1.00;;;24.30;44.80;;;;;;4977435;28;20050;-68
2023/07/29 04:37:44;;;;;;;1.27;0.90;;;24.50;44.80;;;;;;4978195;28;20023;-68
2023/07/29 04:40:11;;;;;;;2.58;1.17;;;24.20;44.80;;;;;;4978403;28;20037;-68
2023/07/29 04:42:39;;;;;;;1.70;0.95;;;24.10;45.20;;;;;;4977259;28;20034;-68
2023/07/29 04:45:07;;;;;;;1.45;0.90;;;24.10;45.60;;;;;;4978129;28;20031;-68
2023/07/29 04:47:34;;;;;;;2.33;1.20;;;24.00;45.70;;;;;;4977975;28;20023;-68
2023/07/29 04:50:02;;;;;;;2.17;1.10;;;24.40;44.70;;;;;;4976752;28;20022;-68
2023/07/29 04:52:29;;;;;;;3.60;1.38;;;24.60;45.30;;;;;;4977879;28;20018;-69
2023/07/29 04:54:57;;;;;;;2.78;1.23;;;25.10;44.60;;;;;;4978601;28;20029;-63
2023/07/29 04:57:24;;;;;;;2.70;1.30;;;24.90;44.70;;;;;;4977242;28;20170;-65
2023/07/29 04:59:52;;;;;;;3.55;1.77;;;24.80;45.70;;;;;;4976959;28;20357;-64
2023/07/29 05:02:20;;;;;;;5.47;3.35;;;24.40;45.40;;;;;;4977845;28;20026;-64
2023/07/29 05:04:48;;;;;;;5.90;4.05;;;23.80;46.60;;;;;;4977021;28;20058;-63
2023/07/29 05:07:16;;;;;;;5.53;4.13;;;23.80;47.00;;;;;;4978099;28;20198;-61
2023/07/29 05:09:44;;;;;;;5.25;4.40;;;23.70;47.50;;;;;;4978046;28;20030;-62
2023/07/29 05:12:11;;;;;;;7.15;5.38;;;23.70;47.20;;;;;;4976887;28;20028;-62
2023/07/29 05:14:39;;;;;;;6.63;4.97;;;23.50;47.20;;;;;;4976952;28;20065;-62
2023/07/29 05:17:07;;;;;;;6.68;4.68;;;23.50;47.80;;;;;;4977871;28;20019;-62
2023/07/29 05:19:34;;;;;;;7.25;4.93;;;23.50;47.80;;;;;;4978207;28;20027;-64
2023/07/29 05:22:02;;;;;;;6.13;4.40;;;23.30;48.20;;;;;;4977907;28;20055;-62
2023/07/29 05:24:29;;;;;;;7.03;4.57;;;23.50;48.20;;;;;;4977795;28;20464;-62
2023/07/29 05:26:57;;;;;;;6.10;4.50;;;23.30;48.00;;;;;;4977594;28;20106;-63
2023/07/29 05:29:24;;;;;;;6.18;3.85;;;23.40;48.30;;;;;;4977836;28;20492;-63
2023/07/29 05:31:52;;;;;;;5.93;4.18;;;23.70;48.60;;;;;;4976791;28;20031;-63
2023/07/29 05:34:19;;;;;;;5.97;3.83;;;24.80;46.60;;;;;;4977737;28;20030;-63
2023/07/29 05:36:47;;;;;;;6.78;3.50;;;26.50;44.30;;;;;;4977544;28;20106;-63
2023/07/29 05:39:15;;;;;;;4.43;3.20;;;27.90;41.10;;;;;;4977574;28;20031;-63
2023/07/29 05:41:42;;;;;;;4.57;2.97;;;27.60;40.80;;;;;;4977565;28;20023;-63
2023/07/29 05:44:10;;;;;;;6.00;3.03;;;25.90;42.90;;;;;;4976450;28;20018;-62
2023/07/29 05:46:37;;;;;;;3.85;2.60;;;25.30;44.70;;;;;;4977298;28;20344;-64
2023/07/29 05:49:05;;;;;;;4.30;2.92;;;24.80;45.50;;;;;;4977354;28;20031;-63
2023/07/29 05:51:32;;;;;;;3.63;2.60;;;24.40;46.40;;;;;;4977295;28;20030;-62
2023/07/29 05:54:00;;;;;;;5.18;3.50;;;24.10;46.90;;;;;;4976263;28;20429;-63
2023/07/29 05:56:27;;;;;;;5.97;3.45;;;23.70;48.00;;;;;;4977217;28;20472;-63
2023/07/29 05:58:55;;;;;;;7.18;4.10;;;23.60;48.40;;;;;;4977091;28;20608;-63
2023/07/29 06:01:23;;;;;;;5.88;4.03;;;23.50;48.20;;;;;;4977035;28;20034;-63
2023/07/29 06:03:50;;;;;;;7.60;4.28;;;23.40;48.40;;;;;;4977009;28;20105;-63
2023/07/29 06:06:18;;;;;;;6.70;4.70;;;23.40;49.50;;;;;;4974791;28;20031;-63
2023/07/29 06:08:45;;;;;;;6.78;4.80;;;23.50;49.20;;;;;;4977197;28;20023;-61
2023/07/29 06:11:13;;;;;;;14.32;5.00;;;23.30;49.40;;;;;;4975804;28;20400;-62
2023/07/29 06:13:41;;;;;;;8.35;4.93;;;23.10;50.70;;;;;;4975760;28;20027;-63
2023/07/29 06:16:08;;;;;;;7.63;5.15;;;23.10;51.60;;;;;;4976572;28;20459;-63
2023/07/29 06:18:36;;;;;;;8.32;5.50;;;22.90;50.70;;;;;;4976374;28;20122;-64
2023/07/29 06:21:07;;;;;;;8.68;5.47;;;22.70;50.60;;;;;;4976615;28;20483;-62
2023/07/29 06:23:35;;;;;;;9.30;6.03;;;22.60;51.50;;;;;;4976530;28;20473;-62
2023/07/29 06:26:03;;;;;;;8.07;5.40;;;22.50;52.40;;;;;;4976558;28;20082;-66
2023/07/29 06:28:31;;;;;;;9.32;5.97;;;22.50;52.50;;;;;;4975463;28;20480;-67
2023/07/29 06:30:58;;;;;;;12.15;6.25;;;22.30;53.90;;;;;;4976423;28;20031;-67
2023/07/29 06:33:26;;;;;;;8.45;6.05;;;22.10;54.00;;;;;;4976578;28;20026;-67
2023/07/29 06:35:53;;;;;;;9.95;6.20;;;22.00;53.20;;;;;;4975799;28;20022;-68
2023/07/29 06:38:21;;;;;;;9.75;6.30;;;21.80;54.40;;;;;;4976596;28;20463;-67
2023/07/29 06:40:49;;;;;;;9.40;6.63;;;21.60;55.10;;;;;;4976413;28;20437;-63
2023/07/29 06:43:17;;;;;;;13.75;8.68;;;21.60;55.30;;;;;;4976462;28;20019;-62
2023/07/29 06:45:45;;;;;;;31.15;20.25;;;21.50;56.00;;;;;;4976390;28;20480;-68
2023/07/29 06:48:12;;;;;;;47.78;29.40;;;21.30;56.60;;;;;;4976067;28;20365;-68
2023/07/29 06:50:40;;;;;;;36.95;25.52;;;21.10;57.30;;;;;;4976051;28;20018;-67
2023/07/29 06:53:07;;;;;;;29.95;20.00;;;21.10;57.70;;;;;;4976297;28;20015;-67
2023/07/29 06:55:35;;;;;;;22.63;16.20;;;21.00;58.00;;;;;;4975935;28;20031;-63
2023/07/29 06:58:03;;;;;;;73.20;45.75;;;21.00;57.90;;;;;;4976505;28;20081;-66
2023/07/29 07:00:30;;;;;;;60.63;38.80;;;20.80;57.90;;;;;;4976188;28;20041;-63
2023/07/29 07:03:01;;;;;;;38.15;23.25;;;20.70;59.20;;;;;;4976578;28;20074;-68
2023/07/29 07:05:28;;;;;;;17.52;10.27;;;20.60;59.10;;;;;;4975634;28;20050;-63
2023/07/29 07:07:56;;;;;;;11.23;6.63;;;20.50;59.70;;;;;;4975953;28;20023;-68
2023/07/29 07:10:23;;;;;;;14.70;8.75;;;20.40;60.20;;;;;;4975907;28;20047;-68
2023/07/29 07:12:51;;;;;;;19.27;11.10;;;20.30;60.70;;;;;;4975799;28;20122;-67
2023/07/29 07:15:18;;;;;;;15.40;9.00;;;20.00;61.60;;;;;;4975070;28;20097;-68
2023/07/29 07:17:46;;;;;;;20.75;11.40;;;19.90;61.50;;;;;;4975840;28;20027;-63
2023/07/29 07:20:13;;;;;;;16.70;10.77;;;19.70;62.80;;;;;;4976138;28;20438;-62
2023/07/29 07:22:41;;;;;;;12.80;9.07;;;19.60;62.90;;;;;;4974967;28;20114;-63
2023/07/29 07:25:08;;;;;;;11.02;6.60;;;19.50;63.60;;;;;;4974927;28;20034;-63
2023/07/29 07:27:37;;;;;;;15.73;8.63;;;19.40;63.70;;;;;;4975757;28;20051;-67
2023/07/29 07:30:05;;;;;;;16.00;9.25;;;19.20;64.60;;;;;;4976278;28;20066;-63
2023/07/29 07:32:33;;;;;;;15.82;8.35;;;19.00;65.30;;;;;;4974889;28;20468;-62
2023/07/29 07:35:00;;;;;;;11.27;5.38;;;18.70;65.60;;;;;;4975938;28;20050;-63
2023/07/29 07:37:28;;;;;;;11.20;4.60;;;18.70;66.20;;;;;;4976021;28;20111;-63
2023/07/29 07:39:55;;;;;;;7.75;4.10;;;18.70;66.60;;;;;;4975760;28;20515;-63
2023/07/29 07:42:23;;;;;;;8.18;3.10;;;18.80;66.40;;;;;;4974623;28;20472;-62
2023/07/29 07:44:50;;;;;;;10.25;5.45;;;18.80;66.40;;;;;;4974831;28;20113;-68
2023/07/29 07:47:18;;;;;;;6.65;4.28;;;18.60;67.10;;;;;;4976067;28;20033;-63
2023/07/29 07:49:46;;;;;;;10.73;4.93;;;18.40;67.80;;;;;;4975745;28;20511;-66
2023/07/29 07:52:13;;;;;;;10.07;5.15;;;18.30;68.20;;;;;;4976366;28;20030;-63
2023/07/29 07:54:41;;;;;;;9.20;4.50;;;18.20;68.70;;;;;;4975057;28;20058;-67
2023/07/29 07:57:08;;;;;;;10.15;5.53;;;18.00;68.70;;;;;;4975642;28;20023;-67
2023/07/29 07:59:36;;;;;;;7.07;4.40;;;18.00;69.30;;;;;;4976197;28;20033;-68
2023/07/29 08:02:04;;;;;;;8.02;4.45;;;17.90;69.40;;;;;;4976192;28;20344;-67
2023/07/29 08:04:31;;;;;;;8.80;4.95;;;17.80;69.50;;;;;;4975799;28;20039;-67
2023/07/29 08:06:59;;;;;;;8.13;4.93;;;17.60;70.10;;;;;;4974569;28;20440;-67
2023/07/29 08:09:26;;;;;;;8.18;4.30;;;17.50;70.00;;;;;;4975699;28;20528;-67
2023/07/29 08:11:54;;;;;;;6.97;3.60;;;17.50;70.00;;;;;;4975657;28;20389;-68
2023/07/29 08:14:21;;;;;;;7.85;3.55;;;17.20;70.70;;;;;;4975688;28;20353;-63
2023/07/29 08:16:49;;;;;;;4.85;3.63;;;17.10;70.90;;;;;;4975424;28;20045;-63
2023/07/29 08:19:16;;;;;;;11.80;4.35;;;17.10;71.20;;;;;;4975627;28;20022;-63
2023/07/29 08:21:44;;;;;;;14.40;4.72;;;17.10;71.70;;;;;;4975742;28;20029;-67
2023/07/29 08:24:11;;;;;;;8.65;4.28;;;17.10;71.40;;;;;;4975596;28;20026;-67
2023/07/29 08:26:39;;;;;;;8.80;4.80;;;17.10;71.40;;;;;;4975512;28;20022;-67
2023/07/29 08:29:06;;;;;;;9.63;4.80;;;17.00;72.40;;;;;;4977305;28;20047;-67
2023/07/29 08:31:34;;;;;;;7.40;4.30;;;16.80;73.40;;;;;;4979021;28;20141;-68
2023/07/29 08:34:02;;;;;;;8.50;4.43;;;16.60;74.20;;;;;;4978194;28;20027;-68
2023/07/29 08:36:29;;;;;;;7.07;4.20;;;16.50;74.90;;;;;;4978820;28;20448;-67
2023/07/29 08:38:57;;;;;;;7.43;4.85;;;16.50;75.10;;;;;;4979257;28;20037;-62
2023/07/29 08:41:38;;;;;;;9.40;4.90;;;16.60;74.20;;;;;;4978216;28;20485;-66
2023/07/29 08:44:23;;;;;;;10.45;4.90;;;16.60;73.70;;;;;;4978903;28;20023;-62
2023/07/29 08:46:52;;;;;;;8.90;4.45;;;16.60;73.60;;;;;;4977730;28;20330;-62
2023/07/29 08:49:20;;;;;;;7.65;4.75;;;16.60;73.80;;;;;;4977617;28;20445;-62
2023/07/29 08:51:49;;;;;;;9.23;5.30;;;16.50;73.90;;;;;;4977666;28;20353;-62
2023/07/29 08:54:17;;;;;;;10.57;4.70;;;16.20;75.00;;;;;;4978455;28;20019;-62
2023/07/29 08:56:45;;;;;;;9.90;5.45;;;16.10;75.30;;;;;;4977369;28;20019;-62
2023/07/29 08:59:16;;;;;;;9.43;5.72;;;16.00;75.10;;;;;;4978342;28;20046;-61
2023/07/29 09:01:45;;;;;;;10.65;5.65;;;15.90;75.70;;;;;;4977293;28;20102;-67
2023/07/29 09:04:12;;;;;;;11.05;5.53;;;15.60;77.00;;;;;;4978169;28;20034;-67
2023/07/29 09:06:42;;;;;;;10.30;6.30;;;15.70;77.00;;;;;;4978331;28;20026;-66
2023/07/29 09:09:09;;;;;;;9.85;5.45;;;15.60;76.40;;;;;;4978423;28;20360;-67
2023/07/29 09:11:37;;;;;;;10.50;6.38;;;15.50;77.50;;;;;;4978322;28;20378;-66
2023/07/29 09:14:04;;;;;;;8.93;6.05;;;15.40;78.30;;;;;;4978237;28;20032;-67
2023/07/29 09:16:34;;;;;;;9.75;5.85;;;15.30;78.40;;;;;;4977371;28;20058;-66
2023/07/29 09:19:05;;;;;;;8.02;5.88;;;15.30;78.40;;;;;;4976270;28;20033;-62
2023/07/29 09:21:33;;;;;;;9.45;5.95;;;15.30;78.50;;;;;;4978034;28;20094;-63
2023/07/29 09:24:05;;;;;;;13.57;8.73;;;15.00;79.60;;;;;;4977108;28;20027;-63
2023/07/29 09:26:32;;;;;;;14.25;9.88;;;14.80;80.20;;;;;;4977946;28;20022;-63
2023/07/29 09:29:01;;;;;;;13.95;8.82;;;14.70;80.60;;;;;;4977784;28;20070;-64
2023/07/29 09:31:29;;;;;;;12.82;8.25;;;14.90;79.30;;;;;;4977806;28;20513;-63
2023/07/29 09:34:05;;;;;;;13.45;9.50;;;15.00;79.10;;;;;;4976716;28;20023;-63
2023/07/29 09:36:35;;;;;;;14.25;9.55;;;14.90;79.10;;;;;;4977716;28;20023;-62
2023/07/29 09:39:03;;;;;;;15.02;10.10;;;14.80;79.00;;;;;;4976766;28;20037;-62
2023/07/29 09:41:33;;;;;;;14.68;10.15;;;14.70;79.20;;;;;;4977775;28;20357;-62
2023/07/29 09:44:05;;;;;;;12.57;10.32;;;14.60;79.60;;;;;;4977712;28;20115;-62
2023/07/29 09:46:38;;;;;;;14.63;9.55;;;14.50;80.70;;;;;;4976592;28;20030;-62
2023/07/29 09:49:08;;;;;;;14.32;8.40;;;14.40;80.70;;;;;;4977599;28;20027;-62
2023/07/29 09:51:41;;;;;;;9.25;7.80;;;14.30;81.30;;;;;;4977506;28;20110;-62
2023/07/29 09:54:13;;;;;;;13.73;8.77;;;14.40;80.20;;;;;;4976493;28;20022;-66
2023/07/29 09:56:44;;;;;;;11.00;7.65;;;14.50;80.30;;;;;;4976491;28;20137;-66
2023/07/29 09:59:12;;;;;;;12.30;7.80;;;14.10;81.90;;;;;;4977459;28;20023;-67
2023/07/29 10:01:41;;;;;;;14.82;8.05;;;13.90;82.40;;;;;;4977843;28;20022;-67
2023/07/29 10:04:11;;;;;;;11.82;8.10;;;14.00;82.30;;;;;;4978247;28;20023;-66
2023/07/29 10:06:39;;;;;;;10.20;7.60;;;13.90;82.50;;;;;;4977715;28;20054;-62
2023/07/29 10:09:08;;;;;;;12.73;8.40;;;13.90;82.20;;;;;;4976778;28;20023;-66
2023/07/29 10:11:38;;;;;;;10.52;7.93;;;13.90;81.70;;;;;;4976692;28;20030;-62
2023/07/29 10:14:05;;;;;;;11.60;8.80;;;13.80;81.90;;;;;;4976409;28;20047;-62
2023/07/29 10:16:35;;;;;;;14.32;9.10;;;13.70;82.60;;;;;;4977527;28;20030;-63
2023/07/29 10:19:02;;;;;;;16.98;9.23;;;13.70;82.50;;;;;;4977575;28;20352;-68
2023/07/29 10:21:35;;;;;;;12.93;8.98;;;13.70;82.40;;;;;;4977213;28;20163;-67
2023/07/29 10:24:06;;;;;;;12.73;8.38;;;13.80;82.30;;;;;;4974023;28;20023;-67
2023/07/29 10:26:36;;;;;;;12.32;8.25;;;13.60;83.10;;;;;;4976897;28;20341;-67
2023/07/29 10:29:08;;;;;;;11.60;7.97;;;13.50;83.60;;;;;;4976797;28;20039;-62
2023/07/29 10:31:37;;;;;;;11.85;8.02;;;13.20;84.20;;;;;;4976990;28;20520;-62
2023/07/29 10:34:05;;;;;;;14.77;8.30;;;13.20;84.80;;;;;;4975737;28;20127;-66
2023/07/29 10:36:33;;;;;;;10.35;7.63;;;13.30;84.60;;;;;;4976849;28;20023;-67
2023/07/29 10:39:01;;;;;;;12.35;8.43;;;13.40;83.90;;;;;;4977033;28;20084;-63
2023/07/29 10:41:57;;;;;;;13.30;7.82;;;13.50;83.20;;;;;;4976663;28;20045;-62
2023/07/29 10:44:42;;;;;;;16.38;8.07;;;13.60;82.20;;;;;;4975574;28;20027;-67
2023/07/29 10:47:17;;;;;;;11.43;7.60;;;13.60;82.00;;;;;;4976723;28;20393;-67
2023/07/29 10:49:47;;;;;;;13.50;8.43;;;13.50;82.10;;;;;;4976731;28;20034;-62
2023/07/29 10:52:32;;;;;;;11.63;8.32;;;13.40;82.40;;;;;;4976007;28;20023;-62
2023/07/29 10:54:59;;;;;;;14.48;9.15;;;13.50;82.00;;;;;;4975796;28;20363;-62
2023/07/29 10:57:43;;;;;;;12.98;8.48;;;13.30;82.80;;;;;;4975426;28;20030;-66
2023/07/29 11:00:11;;;;;;;11.60;8.60;;;13.20;82.80;;;;;;4975514;28;20446;-67
2023/07/29 11:02:39;;;;;;;12.95;8.57;;;13.30;82.50;;;;;;4977605;28;20050;-67
2023/07/29 11:05:16;;;;;;;12.30;8.18;;;13.30;81.80;;;;;;4976911;28;20019;-67
2023/07/29 11:07:48;;;;;;;13.90;8.93;;;13.40;82.10;;;;;;4977821;28;20034;-68
2023/07/29 11:10:17;;;;;;;13.27;9.15;;;13.10;82.60;;;;;;4977929;28;20047;-66
2023/07/29 11:12:54;;;;;;;14.27;9.65;;;13.10;83.20;;;;;;4977116;28;20089;-67
2023/07/29 11:15:30;;;;;;;13.45;8.27;;;13.20;83.00;;;;;;4976954;28;20453;-67
2023/07/29 11:18:02;;;;;;;12.15;8.57;;;13.00;83.50;;;;;;4976359;28;20118;-63
2023/07/29 11:20:32;;;;;;;12.25;8.48;;;12.90;84.10;;;;;;4974946;28;20094;-67
2023/07/29 11:23:04;;;;;;;11.02;8.35;;;12.90;83.70;;;;;;4975018;28;20086;-67
2023/07/29 11:25:33;;;;;;;;;;;12.80;84.10;;;;;;4976835;28;20085;-66
2023/07/29 11:28:01;;;;;;;13.48;9.18;;;12.90;84.00;;;;;;4976086;28;19953;-66
2023/07/29 11:30:33;;;;;;;12.13;9.00;;;12.80;83.80;;;;;;4976352;28;20298;-66
2023/07/29 11:33:01;;;;;;;14.63;9.32;;;12.70;84.00;;;;;;4976243;28;20026;-65
2023/07/29 11:35:28;;;;;;;16.48;11.77;;;12.70;83.70;;;;;;4975270;28;20484;-65
2023/07/29 11:37:56;;;;;;;12.93;9.70;;;12.70;83.90;;;;;;4975010;28;20042;-66
2023/07/29 11:40:24;;;;;;;17.08;12.73;;;12.60;84.10;;;;;;4976129;28;20089;-65
2023/07/29 11:42:53;;;;;;;16.70;13.07;;;12.50;84.00;;;;;;4976177;28;20026;-65
2023/07/29 11:45:23;;;;;;;17.83;12.10;;;12.30;84.70;;;;;;4975056;28;20365;-66
2023/07/29 11:47:50;;;;;;;17.00;11.55;;;12.40;84.80;;;;;;4974961;28;20449;-69
2023/07/29 11:50:18;;;;;;;17.27;12.43;;;12.50;84.10;;;;;;4975476;28;20027;-64
2023/07/29 11:52:47;;;;;;;15.65;10.77;;;12.40;84.80;;;;;;4975522;28;20031;-64
2023/07/29 11:55:15;;;;;;;14.73;11.63;;;12.20;85.20;;;;;;4975091;28;20026;-64
2023/07/29 11:57:44;;;;;;;15.23;10.98;;;12.30;84.50;;;;;;4974464;28;20354;-70
2023/07/29 12:00:12;;;;;;;12.82;10.05;;;12.20;84.90;;;;;;4974913;28;20027;-71
2023/07/29 12:02:44;;;;;;;12.88;9.82;;;12.20;85.20;;;;;;4974752;28;20027;-72
2023/07/29 12:05:13;;;;;;;16.30;10.70;;;12.20;84.70;;;;;;4979559;28;20150;-70
2023/07/29 12:07:42;;;;;;;15.48;10.93;;;12.30;84.50;;;;;;4978517;28;20369;-71
2023/07/29 12:10:11;;;;;;;14.27;10.77;;;12.30;84.10;;;;;;4978682;28;20222;-71
2023/07/29 12:12:50;;;;;;;13.73;11.10;;;12.20;84.40;;;;;;4978623;28;20121;-71
2023/07/29 12:15:28;;;;;;;14.95;11.85;;;12.30;84.30;;;;;;4979596;28;20027;-66
2023/07/29 12:17:58;;;;;;;18.95;12.85;;;12.40;83.20;;;;;;4979599;28;20452;-73
2023/07/29 12:20:27;;;;;;;19.73;12.65;;;12.40;83.30;;;;;;4979420;28;20027;-71
2023/07/29 12:22:56;;;;;;;16.88;12.85;;;12.20;84.30;;;;;;4978395;28;20070;-66
2023/07/29 12:25:24;;;;;;;17.30;13.00;;;11.90;85.10;;;;;;4979311;28;20453;-66
2023/07/29 12:27:52;;;;;;;20.98;13.50;;;11.90;85.30;;;;;;4978993;28;20158;-67
2023/07/29 12:30:26;;;;;;;18.45;12.05;;;11.70;86.00;;;;;;4979106;28;20027;-66
2023/07/29 12:32:53;;;;;;;16.45;12.93;;;11.90;85.10;;;;;;4978194;28;20023;-66
2023/07/29 12:35:21;;;;;;;18.15;13.27;;;12.00;84.60;;;;;;4979108;28;20453;-66
2023/07/29 12:37:58;;;;;;;17.83;13.20;;;11.70;85.50;;;;;;4979051;28;20468;-71
2023/07/29 12:40:27;;;;;;;20.33;13.25;;;11.70;86.00;;;;;;4979314;28;20349;-72
2023/07/29 12:42:55;;;;;;;19.60;13.50;;;11.60;85.80;;;;;;4979038;28;20027;-71
2023/07/29 12:45:28;;;;;;;18.45;12.38;;;11.50;86.60;;;;;;4978001;28;20122;-70
2023/07/29 12:47:57;;;;;;;19.80;13.63;;;11.60;86.20;;;;;;4977887;28;20027;-71
2023/07/29 12:50:25;;;;;;;19.58;13.45;;;11.70;85.50;;;;;;4977880;28;20061;-71
2023/07/29 12:52:53;;;;;;;16.58;12.48;;;11.60;85.70;;;;;;4977876;28;20464;-71